createdAt,value
2023-05-08T00:02:43.826Z,10.67
2023-05-08T00:05:46.817Z,10.40
2023-05-08T00:08:49.686Z,10.34
2023-05-08T00:11:52.521Z,10.08
2023-05-08T00:14:55.616Z,10.02
2023-05-08T00:17:58.815Z,9.93
2023-05-08T00:21:02.093Z,9.80
2023-05-08T00:24:05.008Z,9.38
2023-05-08T00:27:08.474Z,9.29
2023-05-08T00:30:11.983Z,9.04
2023-05-08T00:33:15.002Z,8.98
2023-05-08T00:36:18.297Z,8.75
2023-05-08T00:39:22.084Z,8.56
2023-05-08T00:42:24.990Z,8.65
2023-05-08T00:45:33.232Z,9.01
2023-05-08T00:48:36.577Z,8.75
2023-05-08T00:51:40.925Z,9.01
2023-05-08T00:54:44.526Z,8.96
2023-05-08T00:57:48.282Z,9.02
2023-05-08T01:00:54.424Z,9.01
2023-05-08T01:03:57.439Z,8.96
2023-05-08T01:07:01.710Z,9.06
2023-05-08T01:10:05.147Z,8.91
2023-05-08T01:13:37.081Z,9.08
2023-05-08T01:16:42.713Z,9.09
2023-05-08T01:20:30.518Z,9.00
2023-05-08T01:23:43.022Z,8.86
2023-05-08T01:27:04.380Z,8.79
2023-05-08T01:30:29.730Z,8.67
2023-05-08T01:33:44.309Z,7.98
2023-05-08T01:36:56.184Z,8.04
2023-05-08T01:40:21.301Z,8.31
2023-05-08T01:43:44.992Z,7.69
2023-05-08T01:46:51.583Z,8.06
2023-05-08T01:50:18.578Z,7.75
2023-05-08T01:53:43.886Z,7.53
2023-05-08T01:56:48.194Z,7.44
2023-05-08T01:59:52.837Z,7.03
2023-05-08T02:02:57.193Z,7.17
2023-05-08T02:06:00.958Z,7.28
2023-05-08T02:09:04.240Z,6.93
2023-05-08T02:12:08.433Z,7.27
2023-05-08T02:15:13.505Z,6.90
2023-05-08T02:18:18.938Z,7.05
2023-05-08T02:21:23.122Z,6.93
2023-05-08T02:24:26.577Z,7.08
2023-05-08T02:27:30.608Z,6.64
2023-05-08T02:30:34.010Z,6.89
2023-05-08T02:33:40.290Z,6.52
2023-05-08T02:36:43.475Z,6.39
2023-05-08T02:39:48.526Z,6.14
2023-05-08T02:42:51.723Z,6.31
2023-05-08T02:46:16.435Z,6.35
2023-05-08T02:49:23.602Z,5.76
2023-05-08T02:52:31.087Z,5.99
2023-05-08T02:55:49.773Z,5.54
2023-05-08T02:59:02.591Z,5.44
2023-05-08T03:02:17.293Z,5.43
2023-05-08T03:05:26.265Z,5.10
2023-05-08T03:08:35.566Z,5.06
2023-05-08T03:11:41.414Z,5.18
2023-05-08T03:15:12.552Z,5.23
2023-05-08T03:18:20.525Z,5.39
2023-05-08T03:21:24.552Z,5.44
2023-05-08T03:24:28.625Z,5.40
2023-05-08T03:27:32.423Z,5.27
2023-05-08T03:30:40.783Z,5.39
2023-05-08T03:33:48.256Z,5.40
2023-05-08T03:36:51.206Z,5.43
2023-05-08T03:39:55.970Z,5.23
2023-05-08T03:43:00.908Z,5.22
2023-05-08T03:46:07.239Z,5.85
2023-05-08T03:49:11.340Z,5.55
2023-05-08T03:52:15.124Z,5.35
2023-05-08T03:55:18.347Z,5.87
2023-05-08T03:58:37.461Z,6.04
2023-05-08T04:01:46.778Z,5.86
2023-05-08T04:04:55.708Z,5.98
2023-05-08T04:08:10.062Z,6.11
2023-05-08T04:11:22.661Z,6.01
2023-05-08T04:14:30.851Z,6.13
2023-05-08T04:17:48.418Z,6.67
2023-05-08T04:20:54.901Z,6.69
2023-05-08T04:23:58.785Z,6.96
2023-05-08T04:27:03.486Z,7.08
2023-05-08T04:30:08.372Z,7.25
2023-05-08T04:33:11.974Z,7.31
2023-05-08T04:36:14.881Z,7.70
2023-05-08T04:39:20.200Z,7.47
2023-05-08T04:42:24.546Z,7.88
2023-05-08T04:45:28.245Z,8.10
2023-05-08T04:48:33.500Z,7.86
2023-05-08T04:51:36.777Z,8.05
2023-05-08T04:54:42.156Z,8.07
2023-05-08T04:57:45.670Z,8.36
2023-05-08T05:00:48.801Z,8.23
2023-05-08T05:03:51.669Z,8.31
2023-05-08T05:06:55.054Z,8.31
2023-05-08T05:09:58.222Z,8.61
2023-05-08T05:13:01.317Z,8.42
2023-05-08T05:16:04.708Z,8.48
2023-05-08T05:19:07.820Z,8.45
2023-05-08T05:22:10.868Z,8.75
2023-05-08T05:25:13.762Z,8.93
2023-05-08T05:28:16.952Z,8.66
2023-05-08T05:31:19.965Z,9.24
2023-05-08T05:34:23.208Z,9.19
2023-05-08T05:37:25.951Z,9.22
2023-05-08T05:40:29.532Z,9.77
2023-05-08T05:43:33.178Z,9.63
2023-05-08T05:46:36.518Z,9.76
2023-05-08T05:49:43.264Z,9.47
2023-05-08T05:52:47.061Z,9.72
2023-05-08T05:55:50.325Z,9.66
2023-05-08T05:58:54.070Z,9.90
2023-05-08T06:02:23.289Z,9.58
2023-05-08T06:05:26.679Z,9.15
2023-05-08T06:08:34.826Z,9.06
2023-05-08T06:11:37.609Z,9.01
2023-05-08T06:14:40.233Z,9.45
2023-05-08T06:17:43.108Z,9.45
2023-05-08T06:20:45.736Z,9.56
2023-05-08T06:23:48.433Z,9.57
2023-05-08T06:26:51.123Z,9.89
2023-05-08T06:29:54.104Z,9.91
2023-05-08T06:32:56.952Z,10.11
2023-05-08T06:36:00.548Z,10.02
2023-05-08T06:39:06.474Z,10.17
2023-05-08T06:42:09.146Z,10.17
2023-05-08T06:45:15.180Z,10.43
2023-05-08T06:48:18.175Z,10.52
2023-05-08T06:51:23.316Z,10.66
2023-05-08T06:54:26.229Z,10.69
2023-05-08T06:57:30.554Z,10.69
2023-05-08T07:00:33.788Z,10.59
2023-05-08T07:03:37.169Z,10.84
2023-05-08T07:06:40.118Z,11.35
2023-05-08T07:10:01.155Z,11.22
2023-05-08T07:13:33.678Z,11.63
2023-05-08T07:16:40.753Z,11.16
2023-05-08T07:19:50.885Z,11.48
2023-05-08T07:22:56.627Z,11.55
2023-05-08T07:25:59.788Z,11.97
2023-05-08T07:29:16.116Z,12.03
2023-05-08T07:32:20.008Z,12.43
2023-05-08T07:35:23.494Z,12.55
2023-05-08T07:38:26.881Z,12.38
2023-05-08T07:41:30.031Z,12.39
2023-05-08T07:44:47.010Z,13.27
2023-05-08T07:47:58.087Z,13.22
2023-05-08T07:51:04.879Z,13.29
2023-05-08T07:54:07.727Z,13.53
2023-05-08T07:57:10.556Z,13.49
2023-05-08T08:00:15.174Z,13.90
2023-05-08T08:03:19.450Z,13.49
2023-05-08T08:06:22.769Z,13.17
2023-05-08T08:09:25.899Z,13.10
2023-05-08T08:12:29.453Z,13.23
2023-05-08T08:15:32.874Z,13.29
2023-05-08T08:18:37.772Z,13.81
2023-05-08T08:21:52.768Z,13.90
2023-05-08T08:24:56.649Z,14.58
2023-05-08T08:27:59.440Z,14.49
2023-05-08T08:31:02.534Z,14.04
2023-05-08T08:34:05.418Z,14.46
2023-05-08T08:37:08.728Z,14.34
2023-05-08T08:40:11.837Z,14.14
2023-05-08T08:43:14.875Z,13.71
2023-05-08T08:46:20.440Z,13.82
2023-05-08T08:49:37.401Z,13.94
2023-05-08T08:53:05.319Z,14.28
2023-05-08T08:56:09.259Z,14.24
2023-05-08T08:59:13.433Z,14.55
2023-05-08T09:02:18.192Z,14.92
2023-05-08T09:05:23.792Z,14.86
2023-05-08T09:08:26.944Z,14.98
2023-05-08T09:11:30.093Z,14.81
2023-05-08T09:14:33.137Z,14.72
2023-05-08T09:17:36.138Z,14.39
2023-05-08T09:20:41.918Z,14.31
2023-05-08T09:24:05.085Z,14.94
2023-05-08T09:27:21.562Z,14.97
2023-05-08T09:30:24.437Z,15.44
2023-05-08T09:33:29.166Z,15.43
2023-05-08T09:36:32.365Z,15.59
2023-05-08T09:39:35.207Z,15.94
2023-05-08T09:42:39.029Z,16.33
2023-05-08T09:45:42.873Z,16.65
2023-05-08T09:48:46.133Z,16.01
2023-05-08T09:55:22.189Z,16.30
2023-05-08T09:58:41.165Z,16.27
2023-05-08T10:01:44.693Z,16.87
2023-05-08T10:04:47.960Z,17.16
2023-05-08T10:07:51.012Z,17.24
2023-05-08T10:10:53.821Z,16.60
2023-05-08T10:13:56.593Z,17.03
2023-05-08T10:17:03.957Z,16.95
2023-05-08T10:20:08.089Z,16.88
2023-05-08T10:23:15.166Z,16.57
2023-05-08T10:26:32.704Z,16.62
2023-05-08T10:29:52.822Z,16.91
2023-05-08T10:32:56.679Z,16.82
2023-05-08T10:36:00.358Z,16.37
2023-05-08T10:39:03.358Z,16.28
2023-05-08T10:42:07.049Z,16.41
2023-05-08T10:45:10.817Z,16.91
2023-05-08T10:48:35.275Z,17.57
2023-05-08T10:51:47.717Z,17.89
2023-05-08T10:55:04.561Z,17.87
2023-05-08T10:58:17.507Z,18.14
2023-05-08T11:01:20.265Z,18.17
2023-05-08T11:04:23.894Z,17.69
2023-05-08T11:08:02.231Z,17.72
2023-05-08T11:11:11.128Z,17.77
2023-05-08T11:14:15.619Z,18.49
2023-05-08T11:17:23.929Z,18.60
2023-05-08T11:20:56.634Z,18.59
2023-05-08T11:23:59.376Z,18.30
2023-05-08T11:27:02.161Z,18.40
2023-05-08T11:30:27.005Z,18.38
2023-05-08T11:33:31.293Z,18.00
2023-05-08T11:36:36.979Z,18.54
2023-05-08T11:39:39.968Z,18.48
2023-05-08T11:42:42.964Z,18.40
2023-05-08T11:45:46.968Z,18.52
2023-05-08T11:48:58.503Z,18.60
2023-05-08T11:52:01.505Z,18.64
2023-05-08T11:55:13.091Z,19.08
2023-05-08T11:58:16.703Z,18.92
2023-05-08T12:01:22.543Z,19.29
2023-05-08T12:04:25.429Z,19.45
2023-05-08T12:07:28.414Z,19.94
2023-05-08T12:10:31.670Z,19.83
2023-05-08T12:13:35.036Z,19.59
2023-05-08T12:16:39.060Z,19.10
2023-05-08T12:19:41.872Z,19.61
2023-05-08T12:22:52.892Z,20.34
2023-05-08T12:25:55.831Z,20.75
2023-05-08T12:28:58.914Z,19.68
2023-05-08T12:32:02.051Z,19.56
2023-05-08T12:35:06.991Z,19.16
2023-05-08T12:38:11.010Z,19.27
2023-05-08T12:41:14.055Z,19.59
2023-05-08T12:44:23.679Z,19.70
2023-05-08T12:47:26.944Z,20.45
2023-05-08T12:50:33.695Z,19.84
2023-05-08T12:53:38.128Z,18.95
2023-05-08T12:56:46.664Z,20.12
2023-05-08T12:59:49.417Z,20.48
2023-05-08T13:02:55.861Z,21.11
2023-05-08T13:05:59.025Z,21.59
2023-05-08T13:09:01.876Z,20.74
2023-05-08T13:12:05.958Z,20.44
2023-05-08T13:15:09.755Z,19.90
2023-05-08T13:18:12.698Z,19.41
2023-05-08T13:21:15.914Z,20.99
2023-05-08T13:24:18.522Z,22.72
2023-05-08T13:27:21.255Z,25.60
2023-05-08T13:30:23.970Z,25.70
2023-05-08T13:33:26.885Z,25.40
2023-05-08T13:36:29.687Z,24.18
2023-05-08T13:39:37.347Z,26.93
2023-05-08T13:42:40.094Z,23.34
2023-05-08T13:45:42.874Z,24.05
2023-05-08T13:48:45.823Z,24.90
2023-05-08T13:51:51.990Z,24.84
2023-05-08T13:54:59.405Z,25.16
2023-05-08T13:58:02.342Z,26.55
2023-05-08T14:01:17.656Z,27.12
2023-05-08T14:04:25.536Z,23.61
2023-05-08T14:07:28.399Z,24.75
2023-05-08T14:10:31.158Z,26.16
2023-05-08T14:13:33.864Z,26.50
2023-05-08T14:16:36.609Z,26.71
2023-05-08T14:19:39.510Z,25.66
2023-05-08T14:22:42.229Z,26.13
2023-05-08T14:25:44.941Z,24.47
2023-05-08T14:28:47.739Z,26.25
2023-05-08T14:31:50.724Z,24.51
2023-05-08T14:34:53.379Z,26.82
2023-05-08T14:37:56.059Z,23.89
2023-05-08T14:40:58.838Z,24.44
2023-05-08T14:44:01.985Z,25.33
2023-05-08T14:47:04.797Z,26.34
2023-05-08T14:50:07.986Z,25.77
2023-05-08T14:53:10.773Z,26.47
2023-05-08T14:56:14.237Z,26.85
2023-05-08T14:59:17.338Z,26.74
2023-05-08T15:02:20.761Z,28.71
2023-05-08T15:05:23.649Z,29.38
2023-05-08T15:08:26.607Z,30.62
2023-05-08T15:11:29.258Z,28.83
2023-05-08T15:14:31.890Z,26.98
2023-05-08T15:17:36.635Z,29.57
2023-05-08T15:20:39.397Z,29.25
2023-05-08T15:23:42.012Z,27.44
2023-05-08T15:26:44.631Z,26.44
2023-05-08T15:29:48.617Z,24.15
2023-05-08T15:32:51.580Z,23.34
2023-05-08T15:35:54.231Z,23.68
2023-05-08T15:38:56.956Z,26.83
2023-05-08T15:41:59.630Z,27.93
2023-05-08T15:45:02.409Z,29.64
2023-05-08T15:48:05.163Z,27.73
2023-05-08T15:51:07.977Z,25.15
2023-05-08T15:54:10.844Z,25.81
2023-05-08T15:57:14.015Z,26.32
2023-05-08T16:00:17.034Z,26.71
2023-05-08T16:03:19.803Z,25.74
2023-05-08T16:06:22.598Z,25.26
2023-05-08T16:09:25.485Z,25.16
2023-05-08T16:12:28.188Z,25.02
2023-05-08T16:15:30.833Z,26.06
2023-05-08T16:18:33.688Z,24.79
2023-05-08T16:21:36.263Z,23.36
2023-05-08T16:24:38.893Z,22.45
2023-05-08T16:27:41.615Z,21.96
2023-05-08T16:30:44.301Z,21.89
2023-05-08T16:33:46.956Z,21.19
2023-05-08T16:36:49.755Z,20.95
2023-05-08T16:39:52.354Z,21.11
2023-05-08T16:42:55.023Z,21.14
2023-05-08T16:45:59.356Z,20.71
2023-05-08T16:49:02.174Z,20.19
2023-05-08T16:52:04.836Z,19.69
2023-05-08T16:55:08.252Z,19.36
2023-05-08T16:58:11.311Z,19.02
2023-05-08T17:01:14.337Z,18.59
2023-05-08T17:04:17.042Z,18.21
2023-05-08T17:07:19.853Z,17.88
2023-05-08T17:10:22.598Z,17.57
2023-05-08T17:13:25.471Z,17.45
2023-05-08T17:16:28.278Z,17.33
2023-05-08T17:19:30.976Z,17.19
2023-05-08T17:22:33.525Z,17.21
2023-05-08T17:25:36.356Z,17.33
2023-05-08T17:28:39.052Z,17.29
2023-05-08T17:31:41.735Z,16.99
2023-05-08T17:34:44.457Z,16.66
2023-05-08T17:37:47.277Z,16.39
2023-05-08T17:40:50.446Z,16.04
2023-05-08T17:43:53.864Z,15.83
2023-05-08T17:46:56.673Z,15.50
2023-05-08T17:49:59.429Z,15.21
2023-05-08T17:53:02.142Z,15.00
2023-05-08T17:56:04.947Z,14.73
2023-05-08T17:59:07.666Z,14.49
2023-05-08T18:02:10.404Z,14.24
2023-05-08T18:05:13.086Z,14.02
2023-05-08T18:08:15.770Z,13.87
2023-05-08T18:11:23.410Z,13.87
2023-05-08T18:14:29.147Z,13.99
2023-05-08T18:17:31.934Z,13.87
2023-05-08T18:20:35.012Z,13.83
2023-05-08T18:23:37.731Z,13.67
2023-05-08T18:26:40.397Z,13.60
2023-05-08T18:29:43.050Z,13.48
2023-05-08T18:32:45.889Z,13.35
2023-05-08T18:35:48.801Z,13.17
2023-05-08T18:38:51.627Z,13.06
2023-05-08T18:41:54.363Z,12.93
2023-05-08T18:44:57.047Z,12.81
2023-05-08T18:47:59.835Z,12.48
2023-05-08T18:51:02.525Z,12.41
2023-05-08T18:54:05.691Z,12.28
2023-05-08T18:57:08.307Z,12.19
2023-05-08T19:00:11.543Z,12.05
2023-05-08T19:03:14.743Z,12.06
2023-05-08T19:06:17.789Z,12.10
2023-05-08T19:09:20.577Z,12.01
2023-05-08T19:12:23.322Z,11.84
2023-05-08T19:15:26.021Z,11.72
2023-05-08T19:18:30.141Z,11.55
2023-05-08T19:21:32.975Z,11.65
2023-05-08T19:24:36.733Z,11.58
2023-05-08T19:27:39.693Z,11.52
2023-05-08T19:30:42.470Z,11.43
2023-05-08T19:33:45.713Z,11.22
2023-05-08T19:36:48.235Z,11.04
2023-05-08T19:39:50.838Z,11.08
2023-05-08T19:42:54.091Z,11.04
2023-05-08T19:45:57.039Z,10.88
2023-05-08T19:48:59.710Z,10.87
2023-05-08T19:52:02.433Z,10.80
2023-05-08T19:55:05.668Z,10.63
2023-05-08T19:58:08.339Z,10.45
2023-05-08T20:01:10.908Z,10.30
2023-05-08T20:04:13.698Z,10.20
2023-05-08T20:07:16.528Z,10.06
2023-05-08T20:10:19.296Z,9.98
2023-05-08T20:13:22.054Z,9.96
2023-05-08T20:16:24.797Z,9.84
2023-05-08T20:19:27.640Z,9.82
2023-05-08T20:22:30.344Z,9.63
2023-05-08T20:25:32.992Z,9.41
2023-05-08T20:28:35.792Z,9.34
2023-05-08T20:31:38.530Z,9.22
2023-05-08T20:34:41.553Z,9.29
2023-05-08T20:37:45.681Z,9.29
2023-05-08T20:40:48.385Z,9.14
2023-05-08T20:43:50.967Z,9.03
2023-05-08T20:46:53.863Z,8.91
2023-05-08T20:49:56.768Z,8.67
2023-05-08T20:52:59.420Z,8.58
2023-05-08T20:56:03.331Z,8.47
2023-05-08T20:59:06.058Z,8.47
2023-05-08T21:02:08.660Z,8.39
2023-05-08T21:05:11.546Z,8.22
2023-05-08T21:08:14.512Z,7.97
2023-05-08T21:11:17.227Z,7.94
2023-05-08T21:14:20.027Z,7.78
2023-05-08T21:17:22.724Z,7.70
2023-05-08T21:20:25.411Z,7.54
2023-05-08T21:23:30.293Z,7.51
2023-05-08T21:26:32.964Z,7.47
2023-05-08T21:29:35.697Z,7.40
2023-05-08T21:32:38.428Z,7.42
2023-05-08T21:35:41.791Z,7.25
2023-05-08T21:38:44.413Z,7.11
2023-05-08T21:41:47.211Z,7.11
2023-05-08T21:44:49.875Z,6.79
2023-05-08T21:47:52.597Z,6.82
2023-05-08T21:50:55.348Z,6.70
2023-05-08T21:53:58.338Z,6.59
2023-05-08T21:57:00.928Z,6.49
2023-05-08T22:00:05.583Z,6.54
2023-05-08T22:03:08.377Z,6.47
2023-05-08T22:48:33.958Z,6.51
2023-05-08T22:51:36.849Z,6.48
2023-05-08T22:54:39.574Z,6.31
2023-05-08T22:57:42.260Z,6.37
2023-05-08T23:00:44.880Z,6.33
2023-05-08T23:03:51.339Z,6.25
2023-05-08T23:06:53.862Z,6.21
2023-05-08T23:09:59.107Z,6.09
2023-05-08T23:13:01.783Z,5.91
2023-05-08T23:16:04.810Z,5.89
2023-05-08T23:19:10.216Z,5.81
2023-05-08T23:22:12.806Z,5.87
2023-05-08T23:25:15.707Z,5.75
2023-05-08T23:28:20.983Z,5.51
2023-05-08T23:31:23.943Z,5.29
2023-05-08T23:34:26.631Z,5.21
2023-05-08T23:37:36.563Z,5.09
2023-05-08T23:40:39.291Z,4.85
2023-05-08T23:43:42.267Z,4.82
2023-05-08T23:46:45.364Z,4.53
2023-05-08T23:49:48.198Z,4.48
2023-05-08T23:52:50.848Z,4.26
2023-05-08T23:55:53.651Z,4.44
2023-05-08T23:58:56.513Z,4.33
